createdAt,value
2023-05-01T00:02:04.420Z,98259.53
2023-05-01T00:04:33.851Z,98251.25
2023-05-01T00:07:00.629Z,98252.88
2023-05-01T00:09:28.067Z,98249.56
2023-05-01T00:11:54.767Z,98247.09
2023-05-01T00:14:21.808Z,98253.44
2023-05-01T00:16:48.592Z,98240.19
2023-05-01T00:19:19.212Z,98233.75
2023-05-01T00:21:48.031Z,98229.13
2023-05-01T00:24:16.768Z,98240.69
2023-05-01T00:26:43.525Z,98226.47
2023-05-01T00:29:10.259Z,98228.13
2023-05-01T00:31:37.267Z,98224.00
2023-05-01T00:34:05.376Z,98217.66
2023-05-01T00:36:32.813Z,98219.47
2023-05-01T00:38:59.596Z,98209.53
2023-05-01T00:41:26.541Z,98208.53
2023-05-01T00:43:53.555Z,98205.72
2023-05-01T00:46:20.563Z,98208.72
2023-05-01T00:48:47.424Z,98206.06
2023-05-01T00:51:15.905Z,98207.59
2023-05-01T00:53:43.692Z,98203.47
2023-05-01T00:56:11.324Z,98200.63
2023-05-01T00:58:38.513Z,98198.63
2023-05-01T01:01:05.638Z,98197.81
2023-05-01T01:03:32.476Z,98197.63
2023-05-01T01:06:08.397Z,98191.34
2023-05-01T01:08:50.209Z,98185.69
2023-05-01T01:11:21.843Z,98183.19
2023-05-01T01:13:57.312Z,98190.19
2023-05-01T01:16:30.258Z,98188.72
2023-05-01T01:19:22.350Z,98188.72
2023-05-01T01:21:51.754Z,98183.75
2023-05-01T01:24:43.454Z,98181.59
2023-05-01T01:27:20.702Z,98182.81
2023-05-01T01:29:57.281Z,98174.53
2023-05-01T01:32:46.009Z,98179.16
2023-05-01T01:35:20.324Z,98176.34
2023-05-01T01:38:06.899Z,98174.88
2023-05-01T01:40:45.898Z,98167.09
2023-05-01T01:43:14.198Z,98176.69
2023-05-01T01:45:43.562Z,98168.59
2023-05-01T01:48:15.408Z,98172.03
2023-05-01T01:50:43.476Z,98169.19
2023-05-01T01:53:12.122Z,98171.34
2023-05-01T01:55:40.383Z,98168.50
2023-05-01T01:58:09.487Z,98176.47
2023-05-01T02:00:37.056Z,98171.50
2023-05-01T02:03:04.112Z,98169.66
2023-05-01T02:05:32.183Z,98160.09
2023-05-01T02:07:59.382Z,98157.47
2023-05-01T02:10:28.048Z,98155.16
2023-05-01T02:12:57.100Z,98152.66
2023-05-01T02:15:25.007Z,98153.47
2023-05-01T02:17:52.716Z,98153.78
2023-05-01T02:20:20.209Z,98148.00
2023-05-01T02:22:47.664Z,98144.53
2023-05-01T02:25:15.646Z,98138.38
2023-05-01T02:27:50.870Z,98144.53
2023-05-01T02:30:18.925Z,98138.22
2023-05-01T02:32:45.669Z,98139.03
2023-05-01T02:35:12.441Z,98135.22
2023-05-01T02:37:39.558Z,98135.22
2023-05-01T02:40:07.735Z,98130.28
2023-05-01T02:42:36.940Z,98131.44
2023-05-01T02:45:06.827Z,98127.78
2023-05-01T02:47:38.579Z,98121.31
2023-05-01T02:50:06.803Z,98116.84
2023-05-01T02:52:33.862Z,98122.31
2023-05-01T02:55:19.247Z,98124.16
2023-05-01T02:57:46.050Z,98119.81
2023-05-01T03:00:14.407Z,98119.50
2023-05-01T03:02:41.299Z,98119.19
2023-05-01T03:05:08.802Z,98121.66
2023-05-01T03:07:35.676Z,98116.34
2023-05-01T03:10:06.493Z,98116.03
2023-05-01T03:12:33.248Z,98112.25
2023-05-01T03:15:00.354Z,98114.75
2023-05-01T03:17:27.487Z,98114.22
2023-05-01T03:19:54.438Z,98114.72
2023-05-01T03:22:21.458Z,98111.56
2023-05-01T03:24:48.141Z,98118.22
2023-05-01T03:27:14.900Z,98117.03
2023-05-01T03:29:41.736Z,98112.25
2023-05-01T03:32:08.480Z,98113.72
2023-05-01T03:34:35.714Z,98100.16
2023-05-01T03:37:02.390Z,98105.66
2023-05-01T03:39:29.224Z,98106.63
2023-05-01T03:42:28.040Z,98105.47
2023-05-01T03:45:00.649Z,98097.66
2023-05-01T03:47:29.158Z,98095.84
2023-05-01T03:49:56.302Z,98099.31
2023-05-01T03:52:23.508Z,98091.50
2023-05-01T03:54:51.830Z,98098.50
2023-05-01T03:57:25.261Z,98086.75
2023-05-01T03:59:51.950Z,98086.56
2023-05-01T04:02:19.639Z,98086.91
2023-05-01T04:04:46.995Z,98087.25
2023-05-01T04:07:13.992Z,98091.03
2023-05-01T04:09:41.405Z,98086.75
2023-05-01T04:12:08.188Z,98092.69
2023-05-01T04:14:34.979Z,98088.34
2023-05-01T04:17:02.597Z,98087.84
2023-05-01T04:19:33.002Z,98087.69
2023-05-01T04:22:00.607Z,98087.69
2023-05-01T04:24:28.550Z,98085.03
2023-05-01T04:26:55.273Z,98086.31
2023-05-01T04:29:22.016Z,98087.81
2023-05-01T04:31:48.835Z,98086.31
2023-05-01T04:34:16.440Z,98090.00
2023-05-01T04:36:43.160Z,98088.31
2023-05-01T04:39:10.706Z,98086.69
2023-05-01T04:41:37.504Z,98093.81
2023-05-01T04:44:05.670Z,98096.13
2023-05-01T04:46:32.510Z,98091.94
2023-05-01T04:48:59.292Z,98087.59
2023-05-01T04:51:26.068Z,98084.97
2023-05-01T04:53:54.321Z,98091.75
2023-05-01T04:56:25.807Z,98094.03
2023-05-01T04:58:56.627Z,98093.22
2023-05-01T05:01:25.852Z,98085.91
2023-05-01T05:03:53.043Z,98079.25
2023-05-01T05:06:20.197Z,98090.53
2023-05-01T05:08:47.002Z,98090.19
2023-05-01T05:11:13.698Z,98090.84
2023-05-01T05:13:48.424Z,98096.44
2023-05-01T05:16:15.849Z,98093.91
2023-05-01T05:18:42.726Z,98101.19
2023-05-01T05:21:10.796Z,98099.00
2023-05-01T05:23:41.371Z,98089.34
2023-05-01T05:26:08.117Z,98090.63
2023-05-01T05:28:34.818Z,98087.59
2023-05-01T05:31:02.029Z,98092.28
2023-05-01T05:33:29.398Z,98096.59
2023-05-01T05:35:58.862Z,98095.88
2023-05-01T05:38:28.744Z,98090.84
2023-05-01T05:40:59.516Z,98088.03
2023-05-01T05:43:27.958Z,98083.53
2023-05-01T05:45:59.583Z,98091.97
2023-05-01T05:48:28.007Z,98090.16
2023-05-01T05:50:55.310Z,98085.47
2023-05-01T05:53:24.328Z,98082.53
2023-05-01T05:55:53.052Z,98084.38
2023-05-01T05:58:24.296Z,98091.16
2023-05-01T06:00:53.218Z,98088.34
2023-05-01T06:03:20.127Z,98091.81
2023-05-01T06:05:47.763Z,98091.34
2023-05-01T06:08:14.676Z,98091.16
2023-05-01T06:10:45.049Z,98095.47
2023-05-01T06:13:13.472Z,98090.34
2023-05-01T06:15:43.947Z,98094.47
2023-05-01T06:18:12.025Z,98093.00
2023-05-01T06:20:39.219Z,98091.97
2023-05-01T06:23:06.049Z,98090.78
2023-05-01T06:25:49.634Z,98089.81
2023-05-01T06:28:16.396Z,98085.47
2023-05-01T06:30:43.422Z,98092.47
2023-05-01T06:33:11.021Z,98091.00
2023-05-01T06:35:40.081Z,98089.63
2023-05-01T06:38:06.827Z,98099.91
2023-05-01T06:40:35.400Z,98099.19
2023-05-01T06:43:03.297Z,98102.13
2023-05-01T06:45:30.533Z,98099.56
2023-05-01T06:47:57.508Z,98100.69
2023-05-01T06:50:24.289Z,98108.16
2023-05-01T06:52:51.032Z,98114.94
2023-05-01T06:55:17.721Z,98110.28
2023-05-01T06:57:44.695Z,98111.91
2023-05-01T07:00:12.610Z,98119.25
2023-05-01T07:02:40.875Z,98119.53
2023-05-01T07:05:07.857Z,98125.13
2023-05-01T07:07:34.595Z,98126.44
2023-05-01T07:10:02.299Z,98126.25
2023-05-01T07:12:30.036Z,98127.00
2023-05-01T07:15:00.066Z,98124.78
2023-05-01T07:17:27.176Z,98131.59
2023-05-01T07:19:53.964Z,98130.41
2023-05-01T07:22:20.836Z,98129.13
2023-05-01T07:24:47.605Z,98124.63
2023-05-01T07:27:14.418Z,98129.41
2023-05-01T07:29:41.421Z,98127.56
2023-05-01T07:32:08.416Z,98127.94
2023-05-01T07:34:35.320Z,98120.50
2023-05-01T07:37:02.291Z,98120.59
2023-05-01T07:39:29.227Z,98121.97
2023-05-01T07:41:57.745Z,98120.97
2023-05-01T07:44:24.666Z,98116.75
2023-05-01T07:46:51.708Z,98105.56
2023-05-01T07:49:18.442Z,98116.94
2023-05-01T07:51:45.710Z,98124.19
2023-05-01T07:54:15.078Z,98115.56
2023-05-01T07:56:41.981Z,98112.38
2023-05-01T07:59:08.717Z,98113.63
2023-05-01T08:01:36.591Z,98110.81
2023-05-01T08:04:03.467Z,98111.63
2023-05-01T08:06:30.646Z,98109.78
2023-05-01T08:08:57.415Z,98108.09
2023-05-01T08:11:25.263Z,98107.91
2023-05-01T08:13:51.966Z,98111.00
2023-05-01T08:16:22.019Z,98112.81
2023-05-01T08:18:49.168Z,98100.84
2023-05-01T08:21:15.928Z,98105.88
2023-05-01T08:23:42.914Z,98097.09
2023-05-01T08:26:09.653Z,98091.50
2023-05-01T08:28:36.370Z,98099.31
2023-05-01T08:31:03.876Z,98088.50
2023-05-01T08:33:30.631Z,98091.22
2023-05-01T08:35:57.362Z,98087.81
2023-05-01T08:38:24.464Z,98086.34
2023-05-01T08:40:53.382Z,98086.78
2023-05-01T08:43:20.903Z,98092.34
2023-05-01T08:45:47.893Z,98092.34
2023-05-01T08:48:17.627Z,98087.25
2023-05-01T08:50:46.827Z,98094.28
2023-05-01T08:53:15.938Z,98094.41
2023-05-01T08:55:45.970Z,98097.91
2023-05-01T08:58:13.840Z,98100.00
2023-05-01T09:00:40.721Z,98094.56
2023-05-01T09:03:07.906Z,98097.88
2023-05-01T09:05:34.877Z,98092.88
2023-05-01T09:08:01.660Z,98095.19
2023-05-01T09:10:28.594Z,98099.91
2023-05-01T09:12:58.189Z,98100.06
2023-05-01T09:15:29.077Z,98101.78
2023-05-01T09:17:57.361Z,98097.16
2023-05-01T09:20:24.618Z,98098.00
2023-05-01T09:22:52.054Z,98095.56
2023-05-01T09:25:19.570Z,98086.94
2023-05-01T09:27:46.436Z,98093.09
2023-05-01T09:30:36.894Z,98099.66
2023-05-01T09:33:10.456Z,98104.41
2023-05-01T09:35:57.270Z,98103.22
2023-05-01T09:38:28.864Z,98098.47
2023-05-01T09:40:57.403Z,98105.72
2023-05-01T09:43:26.913Z,98103.41
2023-05-01T09:46:20.700Z,98096.72
2023-05-01T09:48:58.905Z,98089.28
2023-05-01T09:51:33.209Z,98093.81
2023-05-01T09:54:02.102Z,98086.16
2023-05-01T09:56:34.263Z,98083.00
2023-05-01T09:59:18.421Z,98087.91
2023-05-01T10:01:46.815Z,98086.75
2023-05-01T10:04:14.321Z,98092.94
2023-05-01T10:06:41.679Z,98088.94
2023-05-01T10:09:17.185Z,98084.16
2023-05-01T10:11:59.357Z,98082.09
2023-05-01T10:14:28.401Z,98088.94
2023-05-01T10:16:58.061Z,98089.91
2023-05-01T10:19:25.625Z,98091.22
2023-05-01T10:21:53.617Z,98090.44
2023-05-01T10:24:20.593Z,98089.59
2023-05-01T10:26:49.117Z,98083.41
2023-05-01T10:29:16.225Z,98084.50
2023-05-01T10:31:43.202Z,98089.59
2023-05-01T10:34:12.294Z,98083.84
2023-05-01T10:36:43.805Z,98100.06
2023-05-01T10:39:34.207Z,98088.13
2023-05-01T10:42:14.274Z,98087.84
2023-05-01T10:44:42.067Z,98089.06
2023-05-01T10:47:28.430Z,98078.53
2023-05-01T10:50:12.315Z,98085.16
2023-05-01T10:53:09.968Z,98080.50
2023-05-01T10:55:37.638Z,98080.44
2023-05-01T10:58:04.734Z,98075.75
2023-05-01T11:00:32.660Z,98078.56
2023-05-01T11:03:21.182Z,98081.06
2023-05-01T11:06:00.593Z,98083.47
2023-05-01T11:08:36.002Z,98078.44
2023-05-01T11:11:23.180Z,98079.63
2023-05-01T11:14:06.362Z,98081.75
2023-05-01T11:16:46.366Z,98077.19
2023-05-01T11:19:19.105Z,98075.22
2023-05-01T11:21:45.886Z,98065.44
2023-05-01T11:24:12.902Z,98071.75
2023-05-01T11:26:41.246Z,98071.59
2023-05-01T11:29:10.713Z,98063.06
2023-05-01T11:31:38.818Z,98068.66
2023-05-01T11:34:08.885Z,98072.09
2023-05-01T11:36:49.534Z,98069.66
2023-05-01T11:39:19.650Z,98051.78
2023-05-01T11:41:46.471Z,98071.28
2023-05-01T11:44:17.545Z,98060.19
2023-05-01T11:46:44.604Z,98059.28
2023-05-01T11:49:11.597Z,98055.94
2023-05-01T11:51:38.375Z,98054.75
2023-05-01T11:54:05.768Z,98054.75
2023-05-01T11:56:34.200Z,98054.69
2023-05-01T11:59:12.295Z,98063.03
2023-05-01T12:01:41.182Z,98062.53
2023-05-01T12:04:08.834Z,98064.53
2023-05-01T12:06:40.901Z,98057.94
2023-05-01T12:09:08.869Z,98055.06
2023-05-01T12:11:36.055Z,98059.16
2023-05-01T12:14:02.921Z,98058.75
2023-05-01T12:16:30.309Z,98060.50
2023-05-01T12:18:57.176Z,98053.66
2023-05-01T12:21:25.448Z,98051.63
2023-05-01T12:23:52.351Z,98045.16
2023-05-01T12:26:19.973Z,98045.25
2023-05-01T12:29:09.880Z,98047.25
2023-05-01T12:31:37.093Z,98049.47
2023-05-01T12:34:06.260Z,98041.63
2023-05-01T12:36:35.893Z,98048.44
2023-05-01T12:39:04.745Z,98045.09
2023-05-01T12:41:37.946Z,98038.94
2023-05-01T12:44:24.672Z,98045.97
2023-05-01T12:47:09.373Z,98042.84
2023-05-01T12:49:37.530Z,98044.41
2023-05-01T12:52:06.395Z,98049.72
2023-05-01T12:54:38.306Z,98049.84
2023-05-01T12:57:16.201Z,98052.53
2023-05-01T12:59:45.082Z,98044.44
2023-05-01T13:02:15.279Z,98043.66
2023-05-01T13:04:43.892Z,98044.81
2023-05-01T13:07:16.350Z,98044.63
2023-05-01T13:09:57.832Z,98040.31
2023-05-01T13:12:26.503Z,98040.47
2023-05-01T13:14:53.860Z,98035.75
2023-05-01T13:17:28.350Z,98027.28
2023-05-01T13:19:59.948Z,98020.56
2023-05-01T13:22:34.539Z,98011.72
2023-05-01T13:25:03.351Z,98021.59
2023-05-01T13:27:30.205Z,98022.03
2023-05-01T13:29:58.881Z,98028.94
2023-05-01T13:32:26.725Z,98030.34
2023-05-01T13:34:54.516Z,98027.75
2023-05-01T13:37:23.882Z,98022.56
2023-05-01T13:39:51.067Z,98023.53
2023-05-01T13:42:27.529Z,98030.06
2023-05-01T13:44:57.884Z,98031.00
2023-05-01T13:47:28.878Z,98035.00
2023-05-01T13:49:56.009Z,98030.34
2023-05-01T13:52:23.360Z,98034.56
2023-05-01T13:54:53.219Z,98032.41
2023-05-01T13:57:20.150Z,98035.09
2023-05-01T13:59:48.022Z,98030.25
2023-05-01T14:02:25.553Z,98043.78
2023-05-01T14:04:52.353Z,98046.75
2023-05-01T14:07:21.377Z,98050.97
2023-05-01T14:09:55.102Z,98044.00
2023-05-01T14:12:34.160Z,98043.81
2023-05-01T14:15:02.146Z,98040.56
2023-05-01T14:17:33.841Z,98035.00
2023-05-01T14:20:01.397Z,98036.69
2023-05-01T14:22:45.565Z,98036.25
2023-05-01T14:25:24.892Z,98031.53
2023-05-01T14:27:53.811Z,98035.44
2023-05-01T14:30:33.713Z,98032.78
2023-05-01T14:33:04.935Z,98034.63
2023-05-01T14:35:31.901Z,98033.41
2023-05-01T14:38:12.827Z,98034.97
2023-05-01T14:40:43.412Z,98035.53
2023-05-01T14:43:11.278Z,98034.50
2023-05-01T14:45:41.930Z,98032.53
2023-05-01T14:48:09.707Z,98033.69
2023-05-01T14:50:37.007Z,98025.03
2023-05-01T14:53:03.983Z,98026.91
2023-05-01T14:55:34.886Z,98028.72
2023-05-01T14:58:02.223Z,98034.00
2023-05-01T15:00:29.125Z,98035.56
2023-05-01T15:02:55.978Z,98047.91
2023-05-01T15:05:24.086Z,98042.66
2023-05-01T15:07:51.242Z,98037.03
2023-05-01T15:10:18.064Z,98042.00
2023-05-01T15:12:44.792Z,98045.44
2023-05-01T15:15:11.780Z,98041.81
2023-05-01T15:17:38.539Z,98041.50
2023-05-01T15:20:06.371Z,98051.47
2023-05-01T15:22:33.163Z,98047.41
2023-05-01T15:25:00.186Z,98049.66
2023-05-01T15:27:27.756Z,98052.66
2023-05-01T15:29:54.582Z,98047.66
